Time;durP1;ratioP1;P1;durP2;ratioP2;P2;SDS_P1;SDS_P2;PMS_P1;PMS_P2;Temp;Humidity;BMP_temperature;BMP_pressure;BME280_temperature;BME280_humidity;BME280_pressure;Samples;Min_cycle;Max_cycle;Signal;HPM_P1;HPM_P2
2023/07/17 00:02:25;;;;;;;11.60;3.67;;;17.00;36.40;;;;;;5026717;28;20455;-53
2023/07/17 00:04:51;;;;;;;4.00;3.00;;;17.10;37.20;;;;;;5026629;28;20484;-53
2023/07/17 00:07:18;;;;;;;3.50;3.17;;;17.20;29.80;;;;;;5026609;28;20486;-53
2023/07/17 00:09:44;;;;;;;4.20;3.00;;;17.10;48.50;;;;;;5031024;28;20510;-52
2023/07/17 00:12:11;;;;;;;4.73;3.43;;;17.00;33.80;;;;;;5035392;28;20458;-51
2023/07/17 00:14:37;;;;;;;5.37;3.53;;;17.20;35.80;;;;;;5031691;28;20553;-54
2023/07/17 00:17:04;;;;;;;4.57;3.00;;;17.10;40.70;;;;;;5029916;28;20498;-53
2023/07/17 00:19:32;;;;;;;8.20;3.70;;;17.10;32.90;;;;;;5030960;28;20538;-53
2023/07/17 00:21:59;;;;;;;5.13;2.70;;;17.00;26.90;;;;;;5030914;28;20887;-52
2023/07/17 00:24:25;;;;;;;3.50;3.20;;;17.00;29.80;;;;;;5031036;28;20554;-53
2023/07/17 00:26:52;;;;;;;4.83;3.13;;;17.00;23.20;;;;;;5032643;28;20490;-53
2023/07/17 00:29:23;;;;;;;3.63;3.30;;;17.10;23.60;;;;;;5029993;28;20586;-53
2023/07/17 00:31:50;;;;;;;5.10;3.57;;;17.00;23.10;;;;;;5034436;28;20520;-53
2023/07/17 00:34:17;;;;;;;5.20;3.60;;;17.20;21.80;;;;;;5031975;28;20459;-52
2023/07/17 00:36:44;;;;;;;6.03;3.73;;;17.20;27.50;;;;;;5031303;28;21046;-52
2023/07/17 00:39:11;;;;;;;3.87;3.17;;;17.20;25.50;;;;;;5031493;28;20501;-51
2023/07/17 00:41:38;;;;;;;6.97;3.20;;;17.20;22.10;;;;;;5031153;28;20455;-52
2023/07/17 00:44:04;;;;;;;5.50;2.87;;;17.30;84.50;;;;;;5032103;28;20550;-53
2023/07/17 00:46:32;;;;;;;5.10;3.40;;;17.30;99.90;;;;;;5029969;28;20900;-52
2023/07/17 00:48:59;;;;;;;3.10;2.90;;;17.20;99.00;;;;;;5031696;28;20497;-52
2023/07/17 00:51:26;;;;;;;8.13;3.07;;;17.20;97.30;;;;;;5027340;28;20577;-53
2023/07/17 00:53:55;;;;;;;11.87;3.83;;;17.20;21.60;;;;;;5030320;28;20544;-52
2023/07/17 00:56:22;;;;;;;3.60;2.83;;;17.20;79.70;;;;;;5030908;28;20514;-53
2023/07/17 00:58:48;;;;;;;3.80;3.33;;;17.20;21.20;;;;;;5032133;28;20517;-53
2023/07/17 01:01:15;;;;;;;4.60;3.53;;;17.30;20.80;;;;;;5027524;28;21021;-53
2023/07/17 01:03:42;;;;;;;4.80;3.70;;;17.30;22.60;;;;;;5030708;28;20486;-53
2023/07/17 01:06:09;;;;;;;5.73;3.50;;;17.30;26.00;;;;;;5026261;28;20522;-53
2023/07/17 01:08:35;;;;;;;9.97;3.40;;;17.30;32.20;;;;;;5030402;28;20502;-52
2023/07/17 01:11:03;;;;;;;9.50;4.03;;;17.30;25.50;;;;;;5029519;28;20545;-53
2023/07/17 01:13:30;;;;;;;5.40;3.73;;;17.30;24.90;;;;;;5029894;28;20546;-54
2023/07/17 01:15:56;;;;;;;4.80;3.80;;;17.20;23.00;;;;;;5031889;28;21055;-53
2023/07/17 01:18:23;;;;;;;6.63;3.40;;;17.20;99.90;;;;;;5031561;28;20497;-53
2023/07/17 01:20:49;;;;;;;6.10;3.40;;;17.20;99.90;;;;;;5029087;28;20490;-52
2023/07/17 01:23:17;;;;;;;7.87;4.13;;;17.20;85.00;;;;;;5028889;28;20459;-52
2023/07/17 01:25:44;;;;;;;8.73;2.90;;;17.30;87.90;;;;;;5029726;28;20891;-52
2023/07/17 01:28:10;;;;;;;8.03;4.57;;;17.30;99.90;;;;;;5032264;28;20490;-52
2023/07/17 01:30:37;;;;;;;10.03;4.97;;;17.30;99.90;;;;;;5030206;28;20514;-52
2023/07/17 01:33:03;;;;;;;8.93;4.30;;;17.30;20.80;;;;;;5031562;28;20494;-52
2023/07/17 01:35:30;;;;;;;6.83;3.50;;;17.20;75.40;;;;;;5030162;28;20499;-51
2023/07/17 01:37:57;;;;;;;5.20;3.60;;;17.30;99.90;;;;;;5030632;28;20470;-53
2023/07/17 01:40:24;;;;;;;5.27;4.43;;;17.30;99.90;;;;;;5027919;28;20486;-54
2023/07/17 01:42:51;;;;;;;6.80;4.53;;;17.20;99.90;;;;;;5030085;28;20487;-53
2023/07/17 01:45:17;;;;;;;9.23;4.07;;;17.30;99.90;;;;;;5029723;28;20510;-53
2023/07/17 01:47:44;;;;;;;9.70;4.70;;;17.40;99.90;;;;;;5030827;28;20546;-52
2023/07/17 01:50:11;;;;;;;7.33;4.77;;;17.30;99.90;;;;;;5031340;28;20514;-53
2023/07/17 01:52:37;;;;;;;9.33;3.50;;;17.30;99.90;;;;;;5022902;28;20848;-51
2023/07/17 01:55:05;;;;;;;3.73;3.40;;;17.30;99.90;;;;;;5027021;28;20570;-53
2023/07/17 01:57:33;;;;;;;9.87;4.17;;;17.20;99.90;;;;;;5031212;28;20490;-53
2023/07/17 01:59:59;;;;;;;6.30;4.77;;;17.30;99.90;;;;;;5027559;28;20545;-53
2023/07/17 02:02:26;;;;;;;4.73;4.23;;;17.20;99.90;;;;;;5029821;28;20557;-52
2023/07/17 02:04:52;;;;;;;6.17;4.20;;;17.20;99.90;;;;;;5031857;28;20482;-52
2023/07/17 02:07:19;;;;;;;5.70;3.97;;;17.10;99.90;;;;;;5030917;28;20533;-52
2023/07/17 02:09:46;;;;;;;7.50;4.07;;;17.10;99.90;;;;;;5028769;28;20548;-53
2023/07/17 02:12:12;;;;;;;8.30;3.87;;;17.00;99.90;;;;;;5027757;28;20550;-52
2023/07/17 02:14:40;;;;;;;8.03;4.00;;;17.00;99.90;;;;;;5030199;28;21035;-51
2023/07/17 02:17:06;;;;;;;5.63;4.40;;;16.90;99.90;;;;;;5030820;28;20486;-52
2023/07/17 02:19:33;;;;;;;3.97;3.57;;;16.80;99.90;;;;;;5030332;28;22282;-52
2023/07/17 02:21:59;;;;;;;9.20;4.13;;;16.90;99.90;;;;;;5027915;28;20910;-53
2023/07/17 02:24:26;;;;;;;6.47;4.10;;;16.80;99.90;;;;;;5028715;28;20549;-54
2023/07/17 02:26:53;;;;;;;5.40;4.20;;;16.90;99.90;;;;;;5027814;28;20550;-54
2023/07/17 02:29:20;;;;;;;5.93;4.20;;;16.90;99.90;;;;;;5027002;28;20463;-51
2023/07/17 02:31:49;;;;;;;5.07;3.80;;;16.80;99.90;;;;;;5028881;28;21078;-53
2023/07/17 02:34:15;;;;;;;9.33;4.70;;;16.70;99.90;;;;;;5031036;28;20968;-52
2023/07/17 02:36:42;;;;;;;9.00;4.43;;;16.70;99.90;;;;;;5029076;28;20597;-53
2023/07/17 02:39:09;;;;;;;9.43;3.93;;;16.60;99.90;;;;;;5028925;28;20896;-52
2023/07/17 02:41:35;;;;;;;12.03;4.40;;;16.60;99.90;;;;;;5029499;28;20463;-53
2023/07/17 02:44:02;;;;;;;4.90;4.40;;;16.60;99.90;;;;;;5030000;28;21360;-52
2023/07/17 02:46:28;;;;;;;6.27;4.77;;;16.60;99.90;;;;;;5028338;28;20581;-52
2023/07/17 02:48:56;;;;;;;4.80;3.90;;;16.40;99.90;;;;;;5029637;28;20550;-52
2023/07/17 02:51:22;;;;;;;5.50;4.90;;;16.40;99.90;;;;;;5028172;28;20573;-54
2023/07/17 02:53:49;;;;;;;4.63;3.93;;;16.50;99.90;;;;;;5026715;28;20549;-54
2023/07/17 02:56:15;;;;;;;5.00;4.30;;;16.40;99.90;;;;;;5029331;28;20897;-54
2023/07/17 02:58:43;;;;;;;11.93;4.70;;;16.30;99.90;;;;;;5030866;28;20490;-54
2023/07/17 03:01:10;;;;;;;6.70;5.00;;;16.30;99.90;;;;;;5029523;28;20469;-52
2023/07/17 03:03:37;;;;;;;7.73;5.00;;;16.20;99.90;;;;;;5026888;28;20555;-54
2023/07/17 03:06:05;;;;;;;10.87;4.90;;;16.20;99.90;;;;;;5028543;28;20533;-52
2023/07/17 03:08:31;;;;;;;7.00;4.50;;;16.20;99.90;;;;;;5026735;28;20521;-53
2023/07/17 03:11:02;;;;;;;6.83;5.13;;;16.20;99.90;;;;;;5028611;28;20929;-52
2023/07/17 03:13:28;;;;;;;5.63;4.23;;;16.20;99.90;;;;;;5027036;28;21150;-52
2023/07/17 03:15:58;;;;;;;13.20;4.87;;;16.20;99.70;;;;;;5030396;28;20621;-54
2023/07/17 03:18:25;;;;;;;6.47;5.10;;;16.10;99.90;;;;;;5029251;28;20489;-54
2023/07/17 03:20:51;;;;;;;7.63;4.33;;;16.10;99.90;;;;;;5027805;28;20447;-54
2023/07/17 03:23:19;;;;;;;4.40;3.80;;;16.10;99.90;;;;;;5027882;28;20493;-54
2023/07/17 03:25:46;;;;;;;5.13;4.07;;;16.00;99.90;;;;;;5026906;28;21047;-55
2023/07/17 03:28:13;;;;;;;4.63;4.17;;;16.00;94.30;;;;;;5028600;28;20550;-51
2023/07/17 03:30:40;;;;;;;7.10;4.60;;;16.10;98.40;;;;;;5028701;28;20572;-53
2023/07/17 03:33:06;;;;;;;8.33;5.00;;;16.10;97.80;;;;;;5027235;28;20633;-53
2023/07/17 03:35:34;;;;;;;5.20;3.97;;;16.00;99.00;;;;;;5026874;28;20514;-53
2023/07/17 03:38:01;;;;;;;6.40;4.03;;;16.00;91.80;;;;;;5023256;28;20542;-53
2023/07/17 03:40:29;;;;;;;5.97;4.77;;;16.00;91.30;;;;;;5028621;28;20463;-52
2023/07/17 03:42:55;;;;;;;4.83;4.30;;;15.80;98.90;;;;;;5028434;28;20550;-52
2023/07/17 03:45:22;;;;;;;7.57;4.80;;;15.80;90.80;;;;;;5031364;28;20574;-52
2023/07/17 03:47:50;;;;;;;7.17;4.47;;;15.90;93.20;;;;;;5031910;28;20549;-52
2023/07/17 03:50:17;;;;;;;9.87;4.33;;;15.90;88.70;;;;;;5031784;28;21031;-53
2023/07/17 03:52:43;;;;;;;10.27;4.47;;;15.90;82.00;;;;;;5031754;28;20466;-52
2023/07/17 03:55:10;;;;;;;6.93;4.47;;;15.90;78.90;;;;;;5031057;28;20957;-53
2023/07/17 03:57:38;;;;;;;13.63;5.10;;;15.90;78.80;;;;;;5034256;28;20937;-52
2023/07/17 04:00:10;;;;;;;5.03;4.37;;;16.00;82.90;;;;;;5032158;28;21110;-54
2023/07/17 04:02:36;;;;;;;5.43;4.50;;;16.10;74.50;;;;;;5030974;28;20553;-51
2023/07/17 04:05:03;;;;;;;7.30;3.97;;;16.20;70.00;;;;;;5032173;28;20504;-53
2023/07/17 04:07:29;;;;;;;12.73;4.50;;;16.30;75.60;;;;;;5031954;28;20490;-51
2023/07/17 04:09:56;;;;;;;4.60;4.20;;;16.30;79.10;;;;;;5030775;28;20548;-54
2023/07/17 04:12:22;;;;;;;4.70;4.30;;;16.40;81.60;;;;;;5032766;28;20573;-53
2023/07/17 04:14:50;;;;;;;13.70;4.70;;;16.40;86.20;;;;;;5025305;28;21047;-53
2023/07/17 04:17:17;;;;;;;6.10;4.50;;;16.50;84.70;;;;;;5032055;28;20545;-53
2023/07/17 04:19:44;;;;;;;7.37;5.30;;;16.60;90.70;;;;;;5031599;28;20494;-53
2023/07/17 04:22:10;;;;;;;6.20;5.30;;;16.70;90.00;;;;;;5033623;28;20557;-53
2023/07/17 04:24:37;;;;;;;9.70;5.20;;;16.80;87.00;;;;;;5030272;28;20542;-53
2023/07/17 04:27:04;;;;;;;22.30;5.70;;;16.80;90.00;;;;;;5032248;28;20502;-53
2023/07/17 04:29:31;;;;;;;14.60;6.33;;;16.90;95.80;;;;;;5031813;28;20545;-51
2023/07/17 04:31:58;;;;;;;9.50;5.50;;;16.90;99.90;;;;;;5031788;28;21063;-54
2023/07/17 04:34:25;;;;;;;13.67;5.70;;;17.00;99.90;;;;;;5030728;28;20549;-53
2023/07/17 04:36:51;;;;;;;6.70;4.90;;;17.00;99.90;;;;;;5033300;28;20541;-53
2023/07/17 04:39:18;;;;;;;11.43;5.63;;;17.10;99.90;;;;;;5030109;28;21015;-52
2023/07/17 04:41:44;;;;;;;11.90;5.97;;;17.20;99.90;;;;;;5030572;28;20550;-52
2023/07/17 04:44:11;;;;;;;9.67;5.63;;;17.20;99.90;;;;;;5029205;28;20609;-52
2023/07/17 04:46:37;;;;;;;17.70;7.47;;;17.30;99.90;;;;;;5030383;28;20478;-53
2023/07/17 04:49:05;;;;;;;15.60;9.40;;;17.30;99.90;;;;;;5027875;28;20558;-51
2023/07/17 04:51:32;;;;;;;16.53;8.40;;;17.50;99.90;;;;;;5031397;28;20483;-54
2023/07/17 04:53:58;;;;;;;16.90;8.07;;;17.50;99.90;;;;;;5028893;28;20490;-51
2023/07/17 04:56:25;;;;;;;7.57;5.63;;;17.60;99.90;;;;;;5032743;28;20561;-52
2023/07/17 04:58:52;;;;;;;11.00;7.27;;;17.70;99.90;;;;;;5030444;28;20997;-51
2023/07/17 05:01:19;;;;;;;15.23;6.80;;;17.80;99.90;;;;;;5030762;28;20509;-54
2023/07/17 05:03:45;;;;;;;7.43;5.90;;;17.80;99.90;;;;;;5029836;28;20558;-53
2023/07/17 05:06:13;;;;;;;7.07;4.70;;;17.80;99.90;;;;;;5030737;28;20562;-53
2023/07/17 05:08:40;;;;;;;8.47;5.70;;;17.80;99.90;;;;;;5031499;28;20561;-54
2023/07/17 05:11:06;;;;;;;13.33;4.77;;;17.70;99.90;;;;;;5028088;28;20589;-52
2023/07/17 05:13:33;;;;;;;13.80;5.00;;;17.70;99.90;;;;;;5028670;28;20550;-52
2023/07/17 05:15:59;;;;;;;8.00;4.80;;;17.60;99.90;;;;;;5027276;28;21205;-52
2023/07/17 05:18:26;;;;;;;7.10;4.67;;;17.60;99.90;;;;;;5026417;28;21332;-53
2023/07/17 05:20:53;;;;;;;4.53;3.90;;;17.60;99.90;;;;;;5029202;28;20542;-53
2023/07/17 05:23:20;;;;;;;8.27;4.70;;;17.60;99.90;;;;;;5028080;28;20514;-53
2023/07/17 05:25:53;;;;;;;5.43;4.50;;;17.70;99.90;;;;;;5029501;28;22139;-53
2023/07/17 05:28:20;;;;;;;6.27;4.80;;;17.80;99.90;;;;;;5027621;28;20542;-53
2023/07/17 05:30:46;;;;;;;7.57;5.07;;;17.90;99.90;;;;;;5027932;28;20466;-52
2023/07/17 05:33:13;;;;;;;6.30;4.70;;;18.10;99.90;;;;;;5031979;28;20538;-52
2023/07/17 05:35:39;;;;;;;6.57;4.50;;;18.20;99.90;;;;;;5031040;28;20530;-54
2023/07/17 05:38:06;;;;;;;8.23;5.00;;;18.30;99.90;;;;;;5025337;28;20462;-52
2023/07/17 05:40:35;;;;;;;5.80;4.50;;;18.40;99.90;;;;;;5028596;28;20546;-52
2023/07/17 05:43:01;;;;;;;6.70;4.33;;;18.40;99.90;;;;;;5027150;28;20817;-51
2023/07/17 05:45:28;;;;;;;9.97;4.50;;;18.50;99.90;;;;;;5015088;28;20482;-51
2023/07/17 05:47:54;;;;;;;5.00;4.03;;;18.50;99.90;;;;;;5026574;28;20541;-54
2023/07/17 05:50:21;;;;;;;10.93;4.40;;;18.60;99.90;;;;;;5023121;28;21092;-52
2023/07/17 05:52:48;;;;;;;5.37;4.13;;;18.70;99.90;;;;;;5026250;28;21582;-52
2023/07/17 05:55:14;;;;;;;5.80;4.13;;;18.70;99.90;;;;;;5019654;28;21078;-53
2023/07/17 05:57:42;;;;;;;9.13;4.53;;;18.70;99.90;;;;;;5025831;28;20553;-53
2023/07/17 06:00:12;;;;;;;5.70;4.10;;;18.90;99.90;;;;;;5027209;28;20992;-52
2023/07/17 06:02:39;;;;;;;5.63;4.13;;;19.00;99.90;;;;;;5023914;28;20455;-52
2023/07/17 06:05:06;;;;;;;5.70;4.03;;;19.10;99.90;;;;;;5022984;28;20598;-52
2023/07/17 06:07:33;;;;;;;5.47;4.67;;;19.20;99.90;;;;;;5026297;28;20550;-52
2023/07/17 06:09:59;;;;;;;5.30;4.27;;;19.30;99.90;;;;;;5023545;28;20463;-53
2023/07/17 06:12:26;;;;;;;4.90;4.50;;;19.40;33.30;;;;;;5019818;28;20490;-53
2023/07/17 06:14:55;;;;;;;13.23;4.47;;;19.50;41.80;;;;;;5020220;28;20532;-52
2023/07/17 06:17:22;;;;;;;8.47;5.37;;;19.50;46.50;;;;;;5026336;28;20563;-51
2023/07/17 06:19:49;;;;;;;10.97;4.93;;;19.60;50.60;;;;;;5028575;28;20471;-52
2023/07/17 06:22:15;;;;;;;5.80;5.27;;;19.60;48.00;;;;;;5023375;28;20545;-52
2023/07/17 06:24:42;;;;;;;11.00;4.87;;;19.70;45.10;;;;;;5017250;28;20466;-52
2023/07/17 06:27:09;;;;;;;12.43;5.60;;;19.70;45.20;;;;;;5024613;28;20547;-52
2023/07/17 06:29:35;;;;;;;13.70;6.10;;;19.80;40.40;;;;;;5022642;28;20493;-53
2023/07/17 06:32:03;;;;;;;6.13;5.07;;;19.80;49.30;;;;;;5023252;28;20585;-52
2023/07/17 06:34:30;;;;;;;7.87;5.27;;;19.80;59.00;;;;;;5021968;28;20467;-52
2023/07/17 06:36:56;;;;;;;6.17;5.00;;;19.70;58.40;;;;;;5026079;28;20570;-52
2023/07/17 06:39:23;;;;;;;7.10;4.37;;;19.60;63.80;;;;;;5023918;28;20455;-52
2023/07/17 06:41:49;;;;;;;11.70;5.10;;;19.60;64.00;;;;;;5027280;28;20494;-52
2023/07/17 06:44:16;;;;;;;8.63;5.03;;;19.60;65.10;;;;;;5026224;28;20482;-52
2023/07/17 06:46:43;;;;;;;5.40;4.83;;;19.60;64.70;;;;;;5025142;28;20566;-52
2023/07/17 06:49:11;;;;;;;6.57;5.13;;;19.50;68.70;;;;;;5025017;28;20585;-52
2023/07/17 06:51:37;;;;;;;7.23;4.90;;;19.50;63.50;;;;;;5024719;28;20573;-52
2023/07/17 06:54:04;;;;;;;12.43;6.80;;;19.60;72.00;;;;;;5024792;28;20545;-52
2023/07/17 06:56:30;;;;;;;12.00;4.70;;;19.70;77.20;;;;;;5022538;28;20574;-52
2023/07/17 06:58:57;;;;;;;5.67;4.33;;;19.70;75.10;;;;;;5027652;28;20558;-52
2023/07/17 07:01:24;;;;;;;6.87;4.47;;;19.70;73.90;;;;;;5024581;28;21038;-52
2023/07/17 07:03:50;;;;;;;7.33;4.50;;;19.80;83.10;;;;;;5025440;28;20561;-52
2023/07/17 07:06:18;;;;;;;18.13;5.10;;;19.80;84.70;;;;;;5023874;28;20573;-52
2023/07/17 07:08:44;;;;;;;8.00;4.47;;;19.90;83.10;;;;;;5024767;28;20486;-53
2023/07/17 07:11:12;;;;;;;10.20;4.90;;;20.00;81.10;;;;;;5024150;28;20557;-52
2023/07/17 07:13:42;;;;;;;11.70;4.30;;;20.20;88.00;;;;;;5025349;28;20541;-52
2023/07/17 07:16:08;;;;;;;6.30;5.00;;;20.30;92.30;;;;;;5024508;28;20540;-52
2023/07/17 07:18:35;;;;;;;8.93;4.80;;;20.40;99.90;;;;;;5024894;28;20549;-52
2023/07/17 07:21:01;;;;;;;13.37;4.90;;;20.40;99.90;;;;;;5028885;28;20490;-52
2023/07/17 07:23:29;;;;;;;6.40;4.73;;;20.50;99.90;;;;;;5029892;28;20980;-52
2023/07/17 07:25:56;;;;;;;4.20;3.80;;;20.60;99.90;;;;;;5029393;28;20482;-52
2023/07/17 07:28:23;;;;;;;5.97;3.80;;;20.70;99.90;;;;;;5028235;28;20952;-52
2023/07/17 07:30:55;;;;;;;7.60;5.03;;;20.80;99.90;;;;;;5029068;28;20562;-53
2023/07/17 07:33:21;;;;;;;9.60;5.23;;;20.90;99.90;;;;;;5027800;28;20530;-52
2023/07/17 07:35:48;;;;;;;12.47;4.97;;;21.10;99.90;;;;;;5025593;28;21084;-52
2023/07/17 07:38:15;;;;;;;8.33;5.43;;;21.20;99.90;;;;;;5024265;28;20553;-52
2023/07/17 07:40:43;;;;;;;7.30;4.40;;;21.30;99.90;;;;;;5028764;28;21072;-52
2023/07/17 07:43:09;;;;;;;6.50;5.40;;;21.40;99.90;;;;;;5028204;28;20553;-53
2023/07/17 07:45:36;;;;;;;6.80;4.53;;;21.50;99.90;;;;;;5029621;28;20569;-52
2023/07/17 07:48:02;;;;;;;9.20;5.10;;;21.60;99.90;;;;;;5029763;28;21251;-53
2023/07/17 07:50:29;;;;;;;11.63;4.60;;;21.60;99.90;;;;;;5029247;28;20536;-52
2023/07/17 07:52:55;;;;;;;6.00;5.40;;;21.80;99.90;;;;;;5030628;28;20518;-52
2023/07/17 07:55:22;;;;;;;6.37;4.80;;;21.80;99.90;;;;;;5027466;28;20840;-52
2023/07/17 07:57:51;;;;;;;9.20;4.87;;;21.80;99.90;;;;;;5030255;28;21051;-52
2023/07/17 08:00:18;;;;;;;16.13;5.57;;;21.90;99.90;;;;;;5029615;28;20538;-52
2023/07/17 08:02:44;;;;;;;7.23;4.60;;;22.00;99.90;;;;;;5032431;28;20542;-53
2023/07/17 08:05:11;;;;;;;14.73;4.70;;;22.00;99.90;;;;;;5031119;28;20537;-53
2023/07/17 08:07:38;;;;;;;12.83;4.83;;;22.10;99.90;;;;;;5032512;28;20482;-52
2023/07/17 08:10:05;;;;;;;9.97;5.47;;;22.20;99.90;;;;;;5033089;28;20546;-52
2023/07/17 08:12:32;;;;;;;6.10;5.10;;;22.30;99.90;;;;;;5029612;28;20891;-52
2023/07/17 08:15:00;;;;;;;10.20;5.23;;;22.40;99.90;;;;;;5028781;28;20474;-52
2023/07/17 08:17:27;;;;;;;10.00;5.43;;;22.40;99.90;;;;;;5029390;28;20486;-52
2023/07/17 08:19:53;;;;;;;7.20;4.67;;;22.60;99.90;;;;;;5030113;28;20541;-52
2023/07/17 08:22:20;;;;;;;9.70;5.30;;;22.70;99.90;;;;;;5026651;28;20537;-51
2023/07/17 08:24:46;;;;;;;5.30;4.57;;;22.70;99.90;;;;;;5028789;28;20537;-52
2023/07/17 08:27:13;;;;;;;14.83;5.27;;;22.90;99.90;;;;;;5029474;28;20520;-52
2023/07/17 08:29:39;;;;;;;14.17;5.03;;;23.00;99.90;;;;;;5029790;28;20881;-52
2023/07/17 08:32:08;;;;;;;5.93;4.43;;;23.20;99.90;;;;;;5027405;28;20479;-53
2023/07/17 08:34:35;;;;;;;6.13;4.13;;;23.30;99.90;;;;;;5030648;28;20553;-53
2023/07/17 08:37:01;;;;;;;7.20;4.80;;;23.40;99.90;;;;;;5031132;28;21036;-52
2023/07/17 08:39:28;;;;;;;9.40;4.30;;;23.40;99.90;;;;;;5029957;28;20980;-53
2023/07/17 08:41:55;;;;;;;7.83;4.10;;;23.50;99.90;;;;;;5030030;28;20550;-52
2023/07/17 08:44:22;;;;;;;8.87;3.93;;;23.50;99.90;;;;;;5027773;28;20476;-52
2023/07/17 08:46:52;;;;;;;8.67;4.40;;;23.70;99.90;;;;;;5027415;28;20573;-52
2023/07/17 08:49:20;;;;;;;6.63;4.53;;;23.70;99.90;;;;;;5031624;28;20459;-52
2023/07/17 08:51:47;;;;;;;5.50;4.20;;;23.70;99.90;;;;;;5035276;28;20532;-52
2023/07/17 08:54:15;;;;;;;7.27;3.70;;;23.90;99.90;;;;;;5031900;28;21035;-52
2023/07/17 08:56:42;;;;;;;9.10;4.57;;;24.00;99.90;;;;;;5024398;28;20932;-52
2023/07/17 08:59:10;;;;;;;5.33;3.63;;;24.10;99.90;;;;;;5030154;28;20462;-52
2023/07/17 09:01:38;;;;;;;6.53;4.30;;;24.20;99.90;;;;;;5030668;28;21002;-53
2023/07/17 09:04:05;;;;;;;7.37;4.80;;;24.30;99.90;;;;;;5028871;28;20542;-52
2023/07/17 09:06:33;;;;;;;5.77;3.87;;;24.40;99.90;;;;;;5028541;28;20623;-52
2023/07/17 09:09:00;;;;;;;8.90;3.63;;;24.30;99.90;;;;;;5031814;28;20467;-52
2023/07/17 09:11:26;;;;;;;5.87;4.17;;;24.40;99.90;;;;;;5030822;28;20537;-52
2023/07/17 09:13:53;;;;;;;6.63;3.87;;;24.80;99.90;;;;;;5025130;28;20569;-53
2023/07/17 09:16:22;;;;;;;6.23;4.10;;;25.20;99.90;;;;;;5031499;28;20561;-52
2023/07/17 09:18:50;;;;;;;8.60;3.90;;;25.40;99.90;;;;;;5032910;28;20459;-53
2023/07/17 09:21:17;;;;;;;9.20;4.10;;;25.70;99.90;;;;;;5032118;28;20513;-52
2023/07/17 09:23:46;;;;;;;12.23;4.03;;;25.90;99.90;;;;;;5029661;28;21131;-53
2023/07/17 09:26:14;;;;;;;5.20;3.30;;;25.90;99.90;;;;;;5030484;28;20569;-52
2023/07/17 09:28:47;;;;;;;17.27;3.60;;;25.80;99.90;;;;;;5032245;28;20462;-51
2023/07/17 09:31:13;;;;;;;12.43;4.20;;;25.70;99.90;;;;;;5034322;28;20543;-52
2023/07/17 09:33:41;;;;;;;6.83;4.17;;;25.70;99.90;;;;;;5029921;28;20578;-52
2023/07/17 09:36:10;;;;;;;12.83;4.10;;;25.50;99.90;;;;;;5031040;28;20490;-52
2023/07/17 09:38:36;;;;;;;16.97;5.10;;;25.70;99.90;;;;;;5030203;28;20505;-52
2023/07/17 09:41:17;;;;;;;21.13;4.63;;;25.80;99.90;;;;;;5022867;28;20463;-52
2023/07/17 09:43:51;;;;;;;6.97;3.47;;;25.80;99.90;;;;;;5025602;28;20550;-51
2023/07/17 09:46:18;;;;;;;10.70;4.93;;;26.00;99.90;;;;;;5031032;28;20506;-52
2023/07/17 09:48:44;;;;;;;9.80;4.63;;;26.20;99.90;;;;;;5034327;28;20554;-52
2023/07/17 09:51:13;;;;;;;7.67;4.00;;;26.30;99.90;;;;;;5026805;28;20589;-52
2023/07/17 09:53:41;;;;;;;9.00;4.00;;;26.20;99.90;;;;;;5026137;28;20613;-52
2023/07/17 09:56:13;;;;;;;7.30;4.20;;;26.30;99.90;;;;;;5028762;28;20482;-53
2023/07/17 09:58:44;;;;;;;14.83;4.70;;;26.50;99.90;;;;;;5027047;28;20566;-52
2023/07/17 10:01:14;;;;;;;6.13;3.77;;;26.90;99.90;;;;;;5013926;28;20554;-52
2023/07/17 10:03:45;;;;;;;13.90;3.93;;;26.90;99.90;;;;;;5022011;28;20498;-51
2023/07/17 10:06:12;;;;;;;11.50;3.80;;;27.10;99.90;;;;;;5025325;28;21110;-51
2023/07/17 10:08:39;;;;;;;9.40;3.73;;;27.10;99.90;;;;;;5025678;28;21175;-52
2023/07/17 10:11:06;;;;;;;13.70;4.60;;;27.10;99.90;;;;;;5026027;28;20489;-52
2023/07/17 10:13:35;;;;;;;8.87;4.10;;;27.30;99.90;;;;;;5023814;28;20514;-52
2023/07/17 10:16:01;;;;;;;5.03;3.70;;;26.90;99.90;;;;;;5020491;28;20578;-53
2023/07/17 10:18:31;;;;;;;9.67;3.67;;;26.50;99.90;;;;;;5025011;28;20549;-53
2023/07/17 10:20:57;;;;;;;7.87;4.17;;;26.20;99.90;;;;;;5026550;28;20507;-53
2023/07/17 10:23:24;;;;;;;8.33;4.03;;;26.30;99.90;;;;;;5026673;28;20921;-53
2023/07/17 10:25:51;;;;;;;8.97;3.83;;;26.60;99.90;;;;;;5024261;28;20533;-52
2023/07/17 10:28:31;;;;;;;8.80;4.40;;;26.50;99.90;;;;;;5026090;28;20496;-52
2023/07/17 10:31:04;;;;;;;9.63;3.87;;;26.90;99.90;;;;;;5022565;28;21235;-52
2023/07/17 10:33:36;;;;;;;8.33;3.53;;;26.60;99.90;;;;;;5017969;28;20482;-51
2023/07/17 10:36:03;;;;;;;5.00;3.83;;;27.20;99.90;;;;;;5026464;28;20585;-54
2023/07/17 10:38:31;;;;;;;12.20;4.27;;;27.40;99.90;;;;;;5027152;28;20542;-53
2023/07/17 10:41:24;;;;;;;11.70;3.40;;;27.50;99.90;;;;;;5023013;28;20952;-52
2023/07/17 10:43:53;;;;;;;10.50;3.60;;;27.90;99.90;;;;;;5022932;28;20942;-53
2023/07/17 10:46:26;;;;;;;9.10;3.33;;;27.80;99.90;;;;;;5022458;28;21029;-54
2023/07/17 10:48:52;;;;;;;11.23;3.50;;;27.50;99.90;;;;;;5023598;28;20463;-52
2023/07/17 10:51:19;;;;;;;9.70;3.60;;;27.00;99.90;;;;;;5020714;28;20546;-52
2023/07/17 10:53:45;;;;;;;15.70;3.50;;;26.40;99.90;;;;;;5026258;28;20988;-53
2023/07/17 10:56:12;;;;;;;9.43;3.83;;;25.90;99.90;;;;;;5029329;28;20606;-53
2023/07/17 10:58:38;;;;;;;8.70;3.77;;;25.60;99.90;;;;;;5023825;28;20550;-53
2023/07/17 11:01:05;;;;;;;6.77;3.37;;;25.40;99.90;;;;;;5029082;28;20491;-52
2023/07/17 11:03:33;;;;;;;6.80;3.50;;;25.40;99.90;;;;;;5028037;28;21139;-53
2023/07/17 11:06:00;;;;;;;14.40;3.57;;;25.90;99.90;;;;;;5029991;28;20470;-53
2023/07/17 11:08:27;;;;;;;8.37;4.10;;;26.90;99.90;;;;;;5017878;28;20554;-54
2023/07/17 11:10:54;;;;;;;12.43;3.60;;;27.30;99.90;;;;;;5028482;28;20481;-52
2023/07/17 11:13:20;;;;;;;9.27;3.80;;;27.40;99.90;;;;;;5026798;28;21094;-53
2023/07/17 11:15:47;;;;;;;15.23;3.20;;;27.50;99.90;;;;;;5023599;28;20573;-52
2023/07/17 11:18:14;;;;;;;5.77;3.47;;;27.40;99.90;;;;;;5025261;28;20525;-53
2023/07/17 11:20:41;;;;;;;4.57;3.13;;;27.70;99.90;;;;;;5023875;28;20561;-54
2023/07/17 11:23:11;;;;;;;4.67;3.30;;;27.90;99.90;;;;;;5025130;28;20563;-54
2023/07/17 11:25:39;;;;;;;6.43;3.00;;;27.70;99.90;;;;;;5029510;28;20478;-52
2023/07/17 11:28:06;;;;;;;12.63;3.53;;;27.40;99.90;;;;;;5027935;28;20478;-52
2023/07/17 11:30:33;;;;;;;7.83;3.40;;;27.10;99.90;;;;;;5023508;28;20514;-52
2023/07/17 11:33:05;;;;;;;6.77;3.00;;;27.40;99.90;;;;;;5027134;28;20474;-52
2023/07/17 11:35:44;;;;;;;5.30;2.90;;;27.80;99.90;;;;;;5024069;28;20555;-52
2023/07/17 11:38:12;;;;;;;6.10;2.70;;;28.50;99.90;;;;;;5021367;28;20533;-51
2023/07/17 11:40:50;;;;;;;13.93;3.37;;;28.80;99.90;;;;;;5026278;28;20548;-52
2023/07/17 11:43:24;;;;;;;6.13;2.90;;;29.20;99.90;;;;;;5026736;28;20473;-51
2023/07/17 11:45:51;;;;;;;4.63;3.00;;;29.20;99.90;;;;;;5026724;28;21011;-52
2023/07/17 11:48:18;;;;;;;7.43;3.20;;;28.90;99.90;;;;;;5029130;28;20534;-53
2023/07/17 11:50:46;;;;;;;12.33;2.90;;;28.20;99.90;;;;;;5022178;28;20979;-51
2023/07/17 11:53:16;;;;;;;4.80;2.43;;;28.20;99.90;;;;;;5028262;28;21082;-51
2023/07/17 11:55:45;;;;;;;11.97;2.87;;;28.10;99.90;;;;;;5028513;28;20532;-53
2023/07/17 11:58:16;;;;;;;4.60;3.07;;;28.30;99.90;;;;;;5023861;28;20478;-53
2023/07/17 12:00:43;;;;;;;4.20;2.87;;;28.40;99.90;;;;;;5028373;28;20542;-53
2023/07/17 12:03:09;;;;;;;5.13;3.40;;;28.50;99.90;;;;;;5027807;28;20450;-53
2023/07/17 12:05:36;;;;;;;9.03;2.60;;;28.50;99.90;;;;;;5028630;28;20482;-52
2023/07/17 12:08:04;;;;;;;6.30;3.40;;;28.50;99.90;;;;;;5031297;28;20550;-52
2023/07/17 12:10:31;;;;;;;13.77;2.60;;;28.10;99.90;;;;;;5030975;28;21031;-52
2023/07/17 12:12:58;;;;;;;5.00;2.50;;;27.50;99.90;;;;;;5024597;28;20573;-52
2023/07/17 12:15:26;;;;;;;7.13;2.70;;;27.50;99.90;;;;;;5029991;28;20477;-52
2023/07/17 12:17:54;;;;;;;5.43;2.73;;;27.70;99.90;;;;;;5027993;28;20542;-52
2023/07/17 12:20:21;;;;;;;5.80;3.10;;;27.40;99.90;;;;;;5030314;28;20462;-52
2023/07/17 12:22:50;;;;;;;3.93;3.17;;;26.80;99.90;;;;;;5032025;28;20533;-51
2023/07/17 12:25:18;;;;;;;8.77;2.73;;;26.50;99.90;;;;;;5029419;28;20558;-51
2023/07/17 12:27:46;;;;;;;10.43;3.00;;;26.20;99.90;;;;;;5029396;28;20596;-51
2023/07/17 12:30:14;;;;;;;6.57;2.87;;;26.20;99.90;;;;;;5022648;28;21025;-51
2023/07/17 12:32:41;;;;;;;5.63;3.00;;;26.40;99.90;;;;;;5030137;28;20498;-51
2023/07/17 12:35:08;;;;;;;11.03;3.43;;;26.90;99.90;;;;;;5029019;28;20487;-51
2023/07/17 12:37:36;;;;;;;3.70;2.70;;;27.30;99.90;;;;;;5030751;28;20557;-51
2023/07/17 12:40:03;;;;;;;6.60;2.77;;;27.90;99.90;;;;;;5030675;28;20495;-51
2023/07/17 12:42:31;;;;;;;8.20;3.30;;;28.70;99.90;;;;;;5032125;28;21215;-51
2023/07/17 12:44:57;;;;;;;3.63;2.90;;;28.80;99.90;;;;;;5028104;28;20569;-51
2023/07/17 12:47:24;;;;;;;5.57;2.73;;;28.10;99.90;;;;;;5026045;28;21016;-51